Time;durP1;ratioP1;P1;durP2;ratioP2;P2;SDS_P1;SDS_P2;PMS_P1;PMS_P2;Temp;Humidity;BMP_temperature;BMP_pressure;BME280_temperature;BME280_humidity;BME280_pressure;Samples;Min_cycle;Max_cycle;Signal;HPM_P1;HPM_P2
2023/03/30 00:01:55;;;;;;;1.63;1.52;;;9.60;54.70;;;;;;5112325;28;20027;-75
2023/03/30 00:04:25;;;;;;;1.90;1.80;;;9.60;55.30;;;;;;5094811;28;20118;-75
2023/03/30 00:06:51;;;;;;;1.90;1.80;;;9.60;54.70;;;;;;5094453;28;20400;-75
2023/03/30 00:09:17;;;;;;;1.70;1.60;;;9.60;54.70;;;;;;5113108;28;20054;-75
2023/03/30 00:11:44;;;;;;;1.55;1.50;;;9.60;54.80;;;;;;5112955;28;20461;-74
2023/03/30 00:14:11;;;;;;;1.63;1.52;;;9.60;54.80;;;;;;5081104;28;20406;-76
2023/03/30 00:16:36;;;;;;;1.65;1.55;;;9.60;54.80;;;;;;5092039;28;20028;-75
2023/03/30 00:19:02;;;;;;;1.60;1.50;;;9.60;54.80;;;;;;5092501;28;20369;-76
2023/03/30 00:21:28;;;;;;;1.50;1.50;;;9.60;54.70;;;;;;5092531;28;20035;-77
2023/03/30 00:23:53;;;;;;;1.70;1.60;;;9.60;54.70;;;;;;5074115;28;20039;-77
2023/03/30 00:26:19;;;;;;;1.50;1.40;;;9.60;54.70;;;;;;5091942;28;20028;-76
2023/03/30 00:28:45;;;;;;;1.60;1.50;;;9.60;54.70;;;;;;5074262;28;20080;-79
2023/03/30 00:31:11;;;;;;;1.80;1.70;;;9.60;54.70;;;;;;5073992;28;20434;-77
2023/03/30 00:33:36;;;;;;;1.95;1.85;;;9.60;54.70;;;;;;5075744;28;20115;-76
2023/03/30 00:36:02;;;;;;;1.60;1.50;;;9.60;54.70;;;;;;5095083;28;20055;-77
2023/03/30 00:38:28;;;;;;;1.70;1.60;;;9.60;54.70;;;;;;5077289;28;20039;-76
2023/03/30 00:40:57;;;;;;;1.60;1.50;;;9.60;54.70;;;;;;5096026;28;20028;-77
2023/03/30 00:43:24;;;;;;;1.80;1.70;;;9.50;54.70;;;;;;5095637;28;20039;-77
2023/03/30 00:45:50;;;;;;;1.60;1.50;;;9.60;54.80;;;;;;5077403;28;20034;-76
2023/03/30 00:48:19;;;;;;;1.65;1.55;;;9.50;54.70;;;;;;5095572;28;20032;-77
2023/03/30 00:50:55;;;;;;;1.63;1.55;;;9.60;54.70;;;;;;5077135;28;20024;-78
2023/03/30 00:53:46;;;;;;;1.83;1.73;;;9.50;54.70;;;;;;5095675;28;20020;-77
2023/03/30 00:56:16;;;;;;;1.40;1.40;;;9.60;54.70;;;;;;5077114;28;20466;-77
2023/03/30 00:58:43;;;;;;;1.70;1.60;;;9.60;54.70;;;;;;5095393;28;20115;-76
2023/03/30 01:01:11;;;;;;;1.75;1.65;;;9.50;54.70;;;;;;5095402;28;20036;-76
2023/03/30 01:03:46;;;;;;;1.70;1.60;;;9.50;54.70;;;;;;5095133;28;20028;-75
2023/03/30 01:06:16;;;;;;;1.73;1.63;;;9.50;54.70;;;;;;5095221;28;20020;-78
2023/03/30 01:08:43;;;;;;;1.50;1.40;;;9.50;54.70;;;;;;5094884;28;20028;-75
2023/03/30 01:11:10;;;;;;;1.75;1.65;;;9.50;54.70;;;;;;5077120;28;20500;-76
2023/03/30 01:13:40;;;;;;;1.60;1.50;;;9.50;54.70;;;;;;5094926;28;20107;-75
2023/03/30 01:16:19;;;;;;;1.58;1.50;;;9.50;54.70;;;;;;5094801;28;20028;-76
2023/03/30 01:19:10;;;;;;;1.55;1.55;;;9.50;54.70;;;;;;5094845;28;20103;-80
2023/03/30 01:21:47;;;;;;;1.80;1.70;;;9.50;54.60;;;;;;5077092;28;20047;-76
2023/03/30 01:25:10;;;;;;;1.70;1.60;;;9.50;54.70;;;;;;5094858;28;20081;-77
2023/03/30 01:27:48;;;;;;;1.52;1.50;;;9.50;54.60;;;;;;4992506;28;20161;-77
2023/03/30 01:30:32;;;;;;;1.48;1.48;;;9.50;54.60;;;;;;4993084;28;20037;-76
2023/03/30 01:33:36;;;;;;;1.60;1.50;;;9.50;54.60;;;;;;5060913;28;20052;-75
2023/03/30 01:36:29;;;;;;;1.50;1.50;;;9.50;54.60;;;;;;5063207;28;20071;-76
2023/03/30 01:39:19;;;;;;;1.30;1.30;;;9.50;54.60;;;;;;5074086;28;20029;-76
2023/03/30 01:42:12;;;;;;;1.60;1.52;;;9.50;54.60;;;;;;5056384;28;20351;-77
2023/03/30 01:45:08;;;;;;;1.50;1.40;;;9.50;54.60;;;;;;5073975;28;20062;-76
2023/03/30 01:47:47;;;;;;;1.60;1.50;;;9.50;54.60;;;;;;5074319;28;20382;-76
2023/03/30 01:50:26;;;;;;;1.40;1.40;;;9.50;54.70;;;;;;5069886;28;20024;-76
2023/03/30 01:53:10;;;;;;;1.55;1.45;;;9.50;54.70;;;;;;5056921;28;20554;-76
2023/03/30 01:55:54;;;;;;;1.73;1.63;;;9.50;54.70;;;;;;5074407;28;20032;-76
2023/03/30 01:58:30;;;;;;;1.50;1.50;;;9.50;54.70;;;;;;5074089;28;20504;-75
2023/03/30 02:00:58;;;;;;;1.70;1.60;;;9.40;54.60;;;;;;5073880;28;20024;-75
2023/03/30 02:03:31;;;;;;;1.52;1.42;;;9.50;54.70;;;;;;5055823;28;20054;-75
2023/03/30 02:06:24;;;;;;;1.60;1.50;;;9.40;54.70;;;;;;5055981;28;20021;-76
2023/03/30 02:08:53;;;;;;;1.60;1.50;;;9.50;54.70;;;;;;5073545;28;20031;-77
2023/03/30 02:11:19;;;;;;;1.60;1.50;;;9.40;54.70;;;;;;5055928;28;20036;-76
2023/03/30 02:13:46;;;;;;;1.60;1.50;;;9.40;54.70;;;;;;5074037;28;20028;-75
2023/03/30 02:16:17;;;;;;;1.80;1.70;;;9.40;54.70;;;;;;5073840;28;20028;-75
2023/03/30 02:18:43;;;;;;;1.60;1.60;;;9.40;54.70;;;;;;5074155;28;20029;-76
2023/03/30 02:21:09;;;;;;;1.60;1.50;;;9.40;54.70;;;;;;5073257;28;20040;-76
2023/03/30 02:23:39;;;;;;;1.60;1.50;;;9.40;54.80;;;;;;5073339;28;20033;-75
2023/03/30 02:26:07;;;;;;;1.60;1.50;;;9.40;54.70;;;;;;5073338;28;20029;-76
2023/03/30 02:28:34;;;;;;;1.80;1.70;;;9.50;54.80;;;;;;5055489;28;20036;-75
2023/03/30 02:31:00;;;;;;;1.60;1.50;;;9.40;54.70;;;;;;5055110;28;20158;-76
2023/03/30 02:33:28;;;;;;;1.60;1.50;;;9.40;54.70;;;;;;5073582;28;20193;-76
2023/03/30 02:36:12;;;;;;;1.50;1.50;;;9.40;54.70;;;;;;5080979;28;20127;-76
2023/03/30 02:38:54;;;;;;;1.73;1.63;;;9.40;54.70;;;;;;5093807;28;20029;-76
2023/03/30 02:41:31;;;;;;;1.88;1.77;;;9.40;54.70;;;;;;5093030;28;20027;-76
2023/03/30 02:44:14;;;;;;;1.50;1.50;;;9.40;54.70;;;;;;5075149;28;20497;-76
2023/03/30 02:46:42;;;;;;;1.58;1.48;;;9.40;54.70;;;;;;5075390;28;20419;-76
2023/03/30 02:49:34;;;;;;;1.60;1.50;;;9.40;54.70;;;;;;5075105;28;20024;-75
2023/03/30 02:52:51;;;;;;;1.40;1.40;;;9.40;54.70;;;;;;5074786;28;20051;-75
2023/03/30 02:55:16;;;;;;;1.48;1.48;;;9.40;54.70;;;;;;5037614;28;20039;-75
2023/03/30 02:58:17;;;;;;;1.65;1.55;;;9.40;54.70;;;;;;5093278;28;20024;-76
2023/03/30 03:00:59;;;;;;;1.60;1.50;;;9.40;54.70;;;;;;5092995;28;20016;-75
2023/03/30 03:03:42;;;;;;;1.63;1.52;;;9.40;54.70;;;;;;5093368;28;20039;-75
2023/03/30 03:06:08;;;;;;;1.70;1.60;;;9.40;54.70;;;;;;5092914;28;20032;-76
2023/03/30 03:08:39;;;;;;;1.58;1.50;;;9.40;54.70;;;;;;5093488;28;20032;-76
2023/03/30 03:11:09;;;;;;;1.90;1.80;;;9.40;54.70;;;;;;5092655;28;20822;-75
2023/03/30 03:13:36;;;;;;;1.67;1.58;;;9.40;54.70;;;;;;5074454;28;20071;-76
2023/03/30 03:16:06;;;;;;;1.55;1.50;;;9.40;54.70;;;;;;5074924;28;20377;-78
2023/03/30 03:18:38;;;;;;;1.80;1.70;;;9.40;54.70;;;;;;5074893;28;20081;-76
2023/03/30 03:21:05;;;;;;;1.80;1.70;;;9.40;54.70;;;;;;5074647;28;20730;-75
2023/03/30 03:23:30;;;;;;;1.88;1.77;;;9.40;54.70;;;;;;5074428;28;20039;-75
2023/03/30 03:25:56;;;;;;;1.60;1.50;;;9.40;54.80;;;;;;5092486;28;20020;-76
2023/03/30 03:28:22;;;;;;;1.60;1.50;;;9.40;54.80;;;;;;5092534;28;20059;-79
2023/03/30 03:30:48;;;;;;;1.60;1.50;;;9.30;54.70;;;;;;5092814;28;20127;-79
2023/03/30 03:33:13;;;;;;;1.77;1.67;;;9.40;54.70;;;;;;5074589;28;20059;-75
2023/03/30 03:35:39;;;;;;;1.58;1.50;;;9.30;54.70;;;;;;5092977;28;20471;-76
2023/03/30 03:38:06;;;;;;;1.58;1.48;;;9.30;54.70;;;;;;5092730;28;20032;-76
2023/03/30 03:40:32;;;;;;;1.65;1.60;;;9.40;54.70;;;;;;5074693;28;20024;-76
2023/03/30 03:42:58;;;;;;;1.50;1.50;;;9.30;54.70;;;;;;5091831;28;20036;-75
2023/03/30 03:45:25;;;;;;;1.80;1.70;;;9.40;54.80;;;;;;5074682;28;20509;-75
2023/03/30 03:47:51;;;;;;;1.60;1.50;;;9.30;54.70;;;;;;5092852;28;20454;-76
2023/03/30 03:50:17;;;;;;;1.40;1.40;;;9.40;54.80;;;;;;5092718;28;20062;-77
2023/03/30 03:52:43;;;;;;;1.50;1.50;;;9.40;54.70;;;;;;5074275;28;20024;-78
2023/03/30 03:55:09;;;;;;;1.60;1.50;;;9.40;54.70;;;;;;5092169;28;20037;-76
2023/03/30 03:57:35;;;;;;;1.50;1.50;;;9.30;54.70;;;;;;5092543;28;20028;-75
2023/03/30 04:00:02;;;;;;;1.55;1.55;;;9.30;54.70;;;;;;5074739;28;20439;-75
2023/03/30 04:02:28;;;;;;;1.58;1.58;;;9.30;54.70;;;;;;5074460;28;20388;-78
2023/03/30 04:04:53;;;;;;;1.70;1.60;;;9.40;54.70;;;;;;5074072;28;20028;-77
2023/03/30 04:07:20;;;;;;;1.80;1.70;;;9.40;54.70;;;;;;5073816;28;20371;-75
2023/03/30 04:09:46;;;;;;;1.70;1.60;;;9.40;54.70;;;;;;5077165;28;20028;-77
2023/03/30 04:12:11;;;;;;;1.50;1.50;;;9.40;54.70;;;;;;5096688;28;20093;-76
2023/03/30 04:14:37;;;;;;;1.60;1.50;;;9.40;54.70;;;;;;5096009;28;20393;-77
2023/03/30 04:17:03;;;;;;;1.60;1.50;;;9.40;54.70;;;;;;5096461;28;20509;-76
2023/03/30 04:19:30;;;;;;;1.70;1.60;;;9.40;55.20;;;;;;5077787;28;20028;-76
2023/03/30 04:21:57;;;;;;;1.70;1.60;;;9.40;54.60;;;;;;5095978;28;20472;-76
2023/03/30 04:24:26;;;;;;;1.60;1.50;;;9.50;54.60;;;;;;5077329;28;20520;-77
2023/03/30 04:26:52;;;;;;;1.70;1.60;;;9.50;54.60;;;;;;5077947;28;20040;-76
2023/03/30 04:29:19;;;;;;;1.70;1.60;;;9.50;54.60;;;;;;5077813;28;20129;-80
2023/03/30 04:31:45;;;;;;;1.40;1.40;;;9.50;54.50;;;;;;5095826;28;20378;-76
2023/03/30 04:34:15;;;;;;;1.67;1.58;;;9.50;54.50;;;;;;5095061;28;20086;-77
2023/03/30 04:36:42;;;;;;;1.52;1.42;;;9.50;54.50;;;;;;5077490;28;20135;-78
2023/03/30 04:39:10;;;;;;;1.70;1.60;;;9.50;54.50;;;;;;5095466;28;20541;-75
2023/03/30 04:41:36;;;;;;;1.60;1.50;;;9.60;54.50;;;;;;5095618;28;20024;-81
2023/03/30 04:44:08;;;;;;;1.60;1.52;;;9.60;54.50;;;;;;5095177;28;20093;-76
2023/03/30 04:46:35;;;;;;;1.63;1.52;;;9.60;54.50;;;;;;5077531;28;20028;-74
2023/03/30 04:49:01;;;;;;;1.60;1.50;;;9.60;54.40;;;;;;5095321;28;20442;-82
2023/03/30 04:51:28;;;;;;;1.60;1.50;;;9.60;54.40;;;;;;5095417;28;20359;-74
2023/03/30 04:53:54;;;;;;;1.85;1.75;;;9.60;54.40;;;;;;5095233;28;20036;-77
2023/03/30 04:56:20;;;;;;;2.30;2.10;;;9.60;54.40;;;;;;5096830;28;20083;-82
2023/03/30 04:58:46;;;;;;;2.30;2.10;;;9.60;54.00;;;;;;5077655;28;20370;-84
2023/03/30 05:01:12;;;;;;;2.53;2.33;;;9.50;53.80;;;;;;5095916;28;20024;-82
2023/03/30 05:03:38;;;;;;;2.55;2.20;;;9.40;53.60;;;;;;5095027;28;20028;-84
2023/03/30 05:06:05;;;;;;;2.85;2.60;;;9.30;53.40;;;;;;5083537;28;20485;-81
2023/03/30 05:08:32;;;;;;;4.75;2.22;;;9.20;53.40;;;;;;5095272;28;20020;-79
2023/03/30 05:11:03;;;;;;;2.40;2.20;;;9.10;53.20;;;;;;5076750;28;20032;-79
2023/03/30 05:13:30;;;;;;;2.60;2.40;;;9.00;53.20;;;;;;5076818;28;20032;-78
2023/03/30 05:15:56;;;;;;;2.50;2.30;;;8.90;53.00;;;;;;5097056;28;20020;-78
2023/03/30 05:18:22;;;;;;;2.47;2.28;;;8.80;53.00;;;;;;5096420;28;20047;-74
2023/03/30 05:20:48;;;;;;;2.35;2.15;;;8.70;52.80;;;;;;5101662;28;20020;-79
2023/03/30 05:23:14;;;;;;;2.40;2.20;;;8.60;52.80;;;;;;5111544;28;20043;-78
2023/03/30 05:25:45;;;;;;;2.63;2.20;;;8.50;52.80;;;;;;5086203;28;20116;-78
2023/03/30 05:28:11;;;;;;;2.40;2.20;;;8.50;52.90;;;;;;5088638;28;20561;-78
2023/03/30 05:30:38;;;;;;;2.55;2.30;;;8.30;52.50;;;;;;5101654;28;20024;-78
2023/03/30 05:33:04;;;;;;;2.35;2.13;;;8.30;52.70;;;;;;5086410;28;20019;-78
2023/03/30 05:35:30;;;;;;;2.65;2.45;;;8.20;52.70;;;;;;5098861;28;20067;-77
2023/03/30 05:37:55;;;;;;;2.40;2.20;;;8.20;52.70;;;;;;5064429;28;20023;-77
2023/03/30 05:40:22;;;;;;;2.67;2.10;;;8.20;52.50;;;;;;5081826;28;20417;-80
2023/03/30 05:42:47;;;;;;;2.25;2.10;;;8.20;52.50;;;;;;5073703;28;20112;-79
2023/03/30 05:45:13;;;;;;;2.58;2.38;;;8.10;52.50;;;;;;5075068;28;20108;-78
2023/03/30 05:47:39;;;;;;;2.40;2.20;;;8.10;52.40;;;;;;5093910;28;20073;-81
2023/03/30 05:50:06;;;;;;;2.40;2.20;;;8.00;52.30;;;;;;5094345;28;20523;-78
2023/03/30 05:52:31;;;;;;;2.65;2.45;;;8.00;52.30;;;;;;5094603;28;20016;-78
2023/03/30 05:54:57;;;;;;;2.72;2.40;;;7.90;52.40;;;;;;5094198;28;20090;-76
2023/03/30 05:57:23;;;;;;;2.40;2.20;;;8.00;52.30;;;;;;5075737;28;20031;-82
2023/03/30 05:59:48;;;;;;;2.33;2.13;;;7.90;52.40;;;;;;5078870;28;20039;-79
2023/03/30 06:02:16;;;;;;;2.60;2.20;;;7.90;52.30;;;;;;5091373;28;20031;-81
2023/03/30 06:04:42;;;;;;;2.25;2.10;;;7.90;52.30;;;;;;5090011;28;20398;-81
2023/03/30 06:07:07;;;;;;;2.70;2.50;;;7.80;52.10;;;;;;5091595;28;20031;-83
2023/03/30 06:09:33;;;;;;;2.42;2.30;;;7.90;52.20;;;;;;5092465;28;20050;-79
2023/03/30 06:11:59;;;;;;;2.50;2.30;;;7.80;52.10;;;;;;5092369;28;20490;-78
2023/03/30 06:14:25;;;;;;;2.38;2.17;;;7.80;51.80;;;;;;5093042;28;20035;-77
2023/03/30 06:16:51;;;;;;;2.28;2.08;;;7.70;51.70;;;;;;5092489;28;20024;-79
2023/03/30 06:19:17;;;;;;;2.72;2.30;;;7.70;51.90;;;;;;5092011;28;20020;-75
2023/03/30 06:21:43;;;;;;;2.40;2.20;;;7.70;51.80;;;;;;5076176;28;20039;-76
2023/03/30 06:24:09;;;;;;;2.42;2.22;;;7.70;52.00;;;;;;5094335;28;20032;-77
2023/03/30 06:26:35;;;;;;;2.63;2.42;;;7.70;52.00;;;;;;5094492;28;20028;-77
2023/03/30 06:29:00;;;;;;;2.53;2.30;;;7.70;52.00;;;;;;5093204;28;20028;-77
2023/03/30 06:31:26;;;;;;;2.40;2.20;;;7.60;51.90;;;;;;5093963;28;20027;-77
2023/03/30 06:33:52;;;;;;;2.10;2.00;;;7.70;51.70;;;;;;5094769;28;20115;-77
2023/03/30 06:36:18;;;;;;;2.40;2.20;;;7.70;51.80;;;;;;5105250;28;20509;-77
2023/03/30 06:38:43;;;;;;;2.25;2.10;;;7.70;51.70;;;;;;5096475;28;20059;-77
2023/03/30 06:41:11;;;;;;;2.20;2.10;;;7.70;51.70;;;;;;5096343;28;20053;-77
2023/03/30 06:43:37;;;;;;;2.13;2.03;;;7.70;51.80;;;;;;5114771;28;20172;-80
2023/03/30 06:46:04;;;;;;;2.10;2.00;;;7.70;51.80;;;;;;5114746;28;20031;-80
2023/03/30 06:48:30;;;;;;;2.35;2.03;;;7.70;51.70;;;;;;5114856;28;20028;-80
2023/03/30 06:50:56;;;;;;;2.42;2.22;;;7.80;51.70;;;;;;5114677;28;20454;-80
2023/03/30 06:53:22;;;;;;;2.08;1.98;;;7.70;51.50;;;;;;5096453;28;20081;-77
2023/03/30 06:55:53;;;;;;;4.15;2.20;;;7.70;51.50;;;;;;5114695;28;20095;-80
2023/03/30 06:58:19;;;;;;;2.95;2.03;;;7.70;51.40;;;;;;5114542;28;20063;-80
2023/03/30 07:00:45;;;;;;;2.20;2.00;;;7.70;51.50;;;;;;5114699;28;20023;-79
2023/03/30 07:03:11;;;;;;;2.35;2.15;;;7.70;51.50;;;;;;5113180;28;20038;-81
2023/03/30 07:05:37;;;;;;;2.03;1.90;;;7.70;51.40;;;;;;5115157;28;20118;-80
2023/03/30 07:08:04;;;;;;;2.50;2.17;;;7.70;51.30;;;;;;5114172;28;20081;-80
2023/03/30 07:10:30;;;;;;;2.13;2.00;;;7.80;51.20;;;;;;5114670;28;20501;-80
2023/03/30 07:12:56;;;;;;;2.03;1.92;;;7.80;51.00;;;;;;5095851;28;20032;-78
2023/03/30 07:15:23;;;;;;;2.00;1.80;;;7.70;51.10;;;;;;5114029;28;20072;-77
2023/03/30 07:17:49;;;;;;;2.17;2.03;;;7.70;50.90;;;;;;5095941;28;20035;-80
2023/03/30 07:20:15;;;;;;;2.05;1.95;;;7.70;50.90;;;;;;5114140;28;20023;-77
2023/03/30 07:22:41;;;;;;;2.17;1.95;;;7.70;50.70;;;;;;5095830;28;20030;-77
2023/03/30 07:25:08;;;;;;;2.00;1.90;;;7.70;50.80;;;;;;5113960;28;20039;-78
2023/03/30 07:27:35;;;;;;;2.22;2.10;;;7.70;50.80;;;;;;5112693;28;20023;-79
2023/03/30 07:30:01;;;;;;;2.97;1.90;;;7.70;50.80;;;;;;5096066;28;20024;-80
2023/03/30 07:32:27;;;;;;;2.00;1.90;;;7.70;50.70;;;;;;5114378;28;20028;-80
2023/03/30 07:34:53;;;;;;;2.20;2.05;;;7.70;50.70;;;;;;5113740;28;20040;-79
2023/03/30 07:37:18;;;;;;;1.88;1.77;;;7.70;50.70;;;;;;5114042;28;20418;-80
2023/03/30 07:39:44;;;;;;;2.00;1.90;;;7.70;50.60;;;;;;5114162;28;20031;-79
2023/03/30 07:42:10;;;;;;;2.00;1.90;;;7.70;50.50;;;;;;5114002;28;20493;-79
2023/03/30 07:44:35;;;;;;;2.10;2.00;;;7.70;50.30;;;;;;5116774;28;20081;-76
2023/03/30 07:47:05;;;;;;;2.53;1.85;;;7.70;50.30;;;;;;5117955;28;20032;-80
2023/03/30 07:49:31;;;;;;;2.42;1.80;;;7.70;50.30;;;;;;5099644;28;20126;-78
2023/03/30 07:51:58;;;;;;;2.00;1.90;;;7.70;50.30;;;;;;5099561;28;20031;-78
2023/03/30 07:54:24;;;;;;;1.92;1.83;;;7.70;50.30;;;;;;5118178;28;20032;-80
2023/03/30 07:56:51;;;;;;;1.98;1.80;;;7.70;50.10;;;;;;5117649;28;20032;-80
2023/03/30 07:59:22;;;;;;;2.03;1.92;;;7.70;49.80;;;;;;5118237;28;20098;-80
2023/03/30 08:01:53;;;;;;;2.10;2.00;;;7.60;49.90;;;;;;5117996;28;20042;-80
2023/03/30 08:04:19;;;;;;;2.88;1.90;;;7.60;49.80;;;;;;5117865;28;20112;-80
2023/03/30 08:06:46;;;;;;;2.30;2.10;;;7.50;50.00;;;;;;5117856;28;20461;-80
2023/03/30 08:09:12;;;;;;;2.00;1.90;;;7.50;49.90;;;;;;5117430;28;20039;-80
2023/03/30 08:11:38;;;;;;;2.80;2.00;;;7.50;50.00;;;;;;5099329;28;20055;-79
2023/03/30 08:14:04;;;;;;;2.00;1.90;;;7.50;50.10;;;;;;5118133;28;20108;-79
2023/03/30 08:16:30;;;;;;;1.80;1.70;;;7.60;50.10;;;;;;5117664;28;20034;-81
2023/03/30 08:18:56;;;;;;;2.10;2.00;;;7.60;50.10;;;;;;5099885;28;20067;-80
2023/03/30 08:21:24;;;;;;;2.17;2.00;;;7.60;49.90;;;;;;5117387;28;20059;-80
2023/03/30 08:23:50;;;;;;;2.00;1.90;;;7.60;49.90;;;;;;5117564;28;20024;-80
2023/03/30 08:26:16;;;;;;;2.20;2.00;;;7.70;49.80;;;;;;5115907;28;20465;-80
2023/03/30 08:28:42;;;;;;;1.98;1.88;;;7.70;49.40;;;;;;5117082;28;20024;-80
2023/03/30 08:31:09;;;;;;;2.00;1.90;;;7.70;49.50;;;;;;5117396;28;20028;-80
2023/03/30 08:33:35;;;;;;;2.55;2.28;;;7.70;49.60;;;;;;5117552;28;20031;-79
2023/03/30 08:36:02;;;;;;;2.03;1.92;;;7.60;49.10;;;;;;5117375;28;20056;-78
2023/03/30 08:38:28;;;;;;;2.13;2.03;;;7.60;49.60;;;;;;5117392;28;20070;-79
2023/03/30 08:40:54;;;;;;;2.20;2.00;;;7.70;49.70;;;;;;5098959;28;20027;-80
2023/03/30 08:43:40;;;;;;;2.03;1.92;;;7.70;49.70;;;;;;5098651;28;20036;-80
2023/03/30 08:46:11;;;;;;;2.00;1.90;;;7.70;49.40;;;;;;5116999;28;20430;-80
2023/03/30 08:48:38;;;;;;;1.90;1.80;;;7.70;49.40;;;;;;5116871;28;20030;-80
2023/03/30 08:51:26;;;;;;;1.90;1.80;;;7.80;49.40;;;;;;5116733;28;20024;-80
2023/03/30 08:54:17;;;;;;;2.15;2.05;;;7.80;49.20;;;;;;5116487;28;20036;-81
2023/03/30 08:57:07;;;;;;;2.05;1.90;;;7.90;49.10;;;;;;5117333;28;20023;-80
2023/03/30 09:00:03;;;;;;;2.08;1.98;;;7.80;49.00;;;;;;5098524;28;20377;-80
2023/03/30 09:02:36;;;;;;;2.00;1.90;;;7.90;49.20;;;;;;5099301;28;20092;-81
2023/03/30 09:05:14;;;;;;;2.00;1.90;;;7.90;49.10;;;;;;5117036;28;20027;-80
2023/03/30 09:07:54;;;;;;;2.20;2.00;;;7.90;48.90;;;;;;5116656;28;20062;-81
2023/03/30 09:10:21;;;;;;;2.13;2.03;;;7.90;48.80;;;;;;5116903;28;20030;-80
2023/03/30 09:12:51;;;;;;;1.95;1.85;;;7.90;48.90;;;;;;5116626;28;20032;-80
2023/03/30 09:15:29;;;;;;;2.03;1.90;;;7.90;49.00;;;;;;5115044;28;20028;-79
2023/03/30 09:18:26;;;;;;;2.03;1.92;;;7.90;48.90;;;;;;5115641;28;20027;-78
2023/03/30 09:20:55;;;;;;;2.13;1.95;;;7.90;48.80;;;;;;5095576;28;20103;-79
2023/03/30 09:23:21;;;;;;;2.42;2.03;;;8.00;49.00;;;;;;5077124;28;20363;-80
2023/03/30 09:25:57;;;;;;;2.00;1.90;;;8.00;48.90;;;;;;5095470;28;20036;-79
2023/03/30 09:28:32;;;;;;;3.00;2.30;;;8.00;48.90;;;;;;5095658;28;20028;-80
2023/03/30 09:31:15;;;;;;;2.45;2.25;;;8.00;48.80;;;;;;5095837;28;20043;-80
2023/03/30 09:34:02;;;;;;;2.20;2.10;;;8.10;48.60;;;;;;5095918;28;20066;-80
2023/03/30 09:36:43;;;;;;;2.40;2.20;;;8.10;48.70;;;;;;5095341;28;20052;-80
2023/03/30 09:39:19;;;;;;;2.28;2.08;;;8.10;48.40;;;;;;5095395;28;20518;-79
2023/03/30 09:42:17;;;;;;;2.20;2.10;;;8.10;48.50;;;;;;5077498;28;20023;-79
2023/03/30 09:44:50;;;;;;;2.10;2.00;;;8.10;48.30;;;;;;5095381;28;20032;-79
2023/03/30 09:47:29;;;;;;;2.80;2.60;;;8.10;48.30;;;;;;5095180;28;20054;-79
2023/03/30 09:50:08;;;;;;;2.28;2.15;;;8.10;48.30;;;;;;5095609;28;20028;-80
2023/03/30 09:52:39;;;;;;;2.10;1.90;;;8.10;48.30;;;;;;5095705;28;20362;-79
2023/03/30 09:55:20;;;;;;;2.05;1.95;;;8.20;48.30;;;;;;5095276;28;20036;-79
2023/03/30 09:57:46;;;;;;;2.03;1.90;;;8.20;48.20;;;;;;5095272;28;20024;-79
2023/03/30 10:00:32;;;;;;;2.00;1.90;;;8.20;48.20;;;;;;5095105;28;20141;-79
2023/03/30 10:03:04;;;;;;;2.10;2.00;;;8.30;48.10;;;;;;5095172;28;20078;-80
2023/03/30 10:05:32;;;;;;;2.30;2.10;;;8.30;48.30;;;;;;5094825;28;20108;-80
2023/03/30 10:08:04;;;;;;;2.30;2.10;;;8.30;48.20;;;;;;5094611;28;20024;-80
2023/03/30 10:10:38;;;;;;;1.95;1.85;;;8.30;48.20;;;;;;5094980;28;20531;-79
2023/03/30 10:13:13;;;;;;;2.22;2.03;;;8.40;48.10;;;;;;5076910;28;20028;-79
2023/03/30 10:15:44;;;;;;;2.25;2.05;;;8.40;48.10;;;;;;5076741;28;20028;-80
2023/03/30 10:18:16;;;;;;;2.20;2.00;;;8.40;48.00;;;;;;5076747;28;20058;-80
2023/03/30 10:20:50;;;;;;;1.90;1.80;;;8.50;48.10;;;;;;5076813;28;20028;-80
2023/03/30 10:23:18;;;;;;;2.00;1.90;;;8.50;48.10;;;;;;5094899;28;20092;-80
2023/03/30 10:25:48;;;;;;;2.15;2.05;;;8.50;48.00;;;;;;5094762;28;20118;-80
2023/03/30 10:28:25;;;;;;;2.00;1.90;;;8.50;48.00;;;;;;5076544;28;20020;-80
2023/03/30 10:30:55;;;;;;;2.13;1.90;;;8.50;48.00;;;;;;5094565;28;20028;-80
2023/03/30 10:33:22;;;;;;;1.90;1.80;;;8.50;47.90;;;;;;5094766;28;20024;-81
2023/03/30 10:35:52;;;;;;;2.88;1.90;;;8.60;47.90;;;;;;5094431;28;20569;-79
2023/03/30 10:38:18;;;;;;;1.80;1.70;;;8.60;47.90;;;;;;5094347;28;20051;-79
2023/03/30 10:40:45;;;;;;;1.90;1.80;;;8.60;47.80;;;;;;5094601;28;20375;-79
2023/03/30 10:43:19;;;;;;;2.00;1.90;;;8.60;47.80;;;;;;5094848;28;20027;-79
2023/03/30 10:45:49;;;;;;;1.90;1.80;;;8.60;47.80;;;;;;5076317;28;20119;-80
2023/03/30 10:48:46;;;;;;;1.95;1.85;;;8.60;47.80;;;;;;5076127;28;20024;-79
2023/03/30 10:51:16;;;;;;;2.08;1.98;;;8.60;47.80;;;;;;5094443;28;20111;-80
2023/03/30 10:54:11;;;;;;;2.10;1.90;;;8.70;47.70;;;;;;5094181;28;20028;-80
2023/03/30 10:56:48;;;;;;;1.97;1.87;;;8.70;47.70;;;;;;5062787;28;20089;-80
2023/03/30 10:59:32;;;;;;;1.90;1.80;;;8.70;47.60;;;;;;5076225;28;20032;-80
2023/03/30 11:02:28;;;;;;;2.00;1.90;;;8.70;47.60;;;;;;5094044;28;20036;-80
2023/03/30 11:05:03;;;;;;;1.80;1.70;;;8.80;47.10;;;;;;5092616;28;20047;-81
2023/03/30 11:07:37;;;;;;;2.15;1.95;;;8.90;47.40;;;;;;5094288;28;20048;-82
2023/03/30 11:10:31;;;;;;;2.45;2.25;;;8.80;47.30;;;;;;5093891;28;20020;-79
2023/03/30 11:13:06;;;;;;;3.45;1.83;;;8.90;47.00;;;;;;5081920;28;20120;-79
2023/03/30 11:15:40;;;;;;;2.00;1.90;;;8.90;46.80;;;;;;5094027;28;20434;-80
2023/03/30 11:18:16;;;;;;;1.90;1.80;;;8.90;46.90;;;;;;5075579;28;20028;-81
2023/03/30 11:20:55;;;;;;;1.83;1.73;;;8.90;46.80;;;;;;5093685;28;20352;-81
2023/03/30 11:23:52;;;;;;;1.92;1.83;;;8.90;46.70;;;;;;5075481;28;20051;-81
2023/03/30 11:26:42;;;;;;;1.85;1.70;;;9.00;46.40;;;;;;5074632;28;20036;-80
2023/03/30 11:29:23;;;;;;;1.80;1.70;;;9.00;47.20;;;;;;5075363;28;20476;-80
2023/03/30 11:32:26;;;;;;;1.65;1.60;;;9.00;46.70;;;;;;5093700;28;20024;-80
2023/03/30 11:35:18;;;;;;;2.03;1.90;;;9.10;46.40;;;;;;5093730;28;20066;-80
2023/03/30 11:37:49;;;;;;;1.80;1.70;;;9.10;46.50;;;;;;5093506;28;20039;-80
2023/03/30 11:40:28;;;;;;;1.90;1.80;;;9.10;46.50;;;;;;5093858;28;20026;-80
2023/03/30 11:42:55;;;;;;;1.95;1.85;;;9.20;46.40;;;;;;5093585;28;20025;-80
2023/03/30 11:45:44;;;;;;;1.90;1.80;;;9.20;46.50;;;;;;5075986;28;20123;-79
2023/03/30 11:48:32;;;;;;;1.80;1.70;;;9.20;46.50;;;;;;5093717;28;20034;-80
2023/03/30 11:51:16;;;;;;;1.90;1.80;;;9.20;46.40;;;;;;5093753;28;20024;-79
2023/03/30 11:54:07;;;;;;;1.85;1.75;;;9.30;46.30;;;;;;5094111;28;20036;-81
2023/03/30 11:56:53;;;;;;;2.00;1.90;;;9.30;45.70;;;;;;5093056;28;20037;-80
2023/03/30 11:59:32;;;;;;;1.88;1.77;;;9.30;46.00;;;;;;5075423;28;20040;-80
2023/03/30 12:02:19;;;;;;;2.00;1.80;;;9.40;46.10;;;;;;5093774;28;20047;-79
2023/03/30 12:04:55;;;;;;;2.03;1.92;;;9.40;45.80;;;;;;5093512;28;20032;-79
2023/03/30 12:07:38;;;;;;;1.80;1.70;;;9.50;45.90;;;;;;5075404;28;20035;-79
2023/03/30 12:10:12;;;;;;;2.25;1.98;;;9.50;46.40;;;;;;5093515;28;20465;-80
2023/03/30 12:12:38;;;;;;;2.20;2.00;;;9.50;45.80;;;;;;5075222;28;20029;-79
2023/03/30 12:15:10;;;;;;;2.83;2.20;;;9.50;45.70;;;;;;5093376;28;20111;-78
2023/03/30 12:17:54;;;;;;;2.30;2.10;;;9.60;45.70;;;;;;5093623;28;20020;-79
2023/03/30 12:20:59;;;;;;;2.10;2.00;;;9.60;45.70;;;;;;5093140;28;20020;-79
2023/03/30 12:23:32;;;;;;;2.00;1.90;;;9.60;45.50;;;;;;5054368;28;20047;-79
2023/03/30 12:26:06;;;;;;;2.60;2.40;;;9.70;45.50;;;;;;5075902;28;20044;-80
2023/03/30 12:28:43;;;;;;;2.25;2.05;;;9.70;45.50;;;;;;5093505;28;20020;-81
2023/03/30 12:31:09;;;;;;;1.85;1.75;;;9.70;45.40;;;;;;5096269;28;20093;-81
2023/03/30 12:33:34;;;;;;;1.80;1.70;;;9.70;45.40;;;;;;5097354;28;20450;-80
2023/03/30 12:36:25;;;;;;;1.90;1.80;;;9.70;45.30;;;;;;5096876;28;20056;-81
2023/03/30 12:39:00;;;;;;;1.73;1.63;;;9.80;45.20;;;;;;5097223;28;20035;-79
2023/03/30 12:41:28;;;;;;;1.80;1.70;;;9.90;45.10;;;;;;5096755;28;20025;-79
2023/03/30 12:44:08;;;;;;;1.90;1.80;;;9.90;45.10;;;;;;5096529;28;20085;-80
2023/03/30 12:46:43;;;;;;;2.03;1.92;;;9.90;44.90;;;;;;5096315;28;20047;-80
2023/03/30 12:49:29;;;;;;;1.90;1.80;;;10.00;45.00;;;;;;5078885;28;20028;-81
2023/03/30 12:52:27;;;;;;;2.08;1.88;;;10.10;45.00;;;;;;5096727;28;20029;-80
2023/03/30 12:55:11;;;;;;;2.05;1.85;;;10.10;44.80;;;;;;5096472;28;20032;-78
2023/03/30 12:58:12;;;;;;;2.00;1.70;;;10.20;44.70;;;;;;5096354;28;20020;-79
2023/03/30 13:01:10;;;;;;;1.60;1.50;;;10.30;44.50;;;;;;5078012;28;20032;-80
2023/03/30 13:03:48;;;;;;;1.42;1.42;;;10.30;44.10;;;;;;5078019;28;20040;-80
2023/03/30 13:06:24;;;;;;;1.75;1.65;;;10.40;44.40;;;;;;5097040;28;20462;-81
2023/03/30 13:09:12;;;;;;;2.20;2.00;;;10.50;44.30;;;;;;5096423;28;20366;-80
2023/03/30 13:11:48;;;;;;;1.52;1.50;;;10.60;44.20;;;;;;5077547;28;20028;-78
2023/03/30 13:14:34;;;;;;;1.80;1.70;;;10.70;44.10;;;;;;5096081;28;20021;-80
2023/03/30 13:16:59;;;;;;;1.80;1.70;;;10.80;43.60;;;;;;5078720;28;20430;-79
2023/03/30 13:19:31;;;;;;;1.90;1.80;;;10.90;44.00;;;;;;5095783;28;20107;-79
2023/03/30 13:22:09;;;;;;;1.85;1.75;;;10.90;43.90;;;;;;5095607;28;20035;-79
2023/03/30 13:24:54;;;;;;;1.70;1.60;;;11.10;43.90;;;;;;5095918;28;20038;-79
2023/03/30 13:27:21;;;;;;;2.25;1.50;;;11.20;43.70;;;;;;5095994;28;20024;-78